sensor_id;sensor_type;location;lat;lon;timestamp;pressure;altitude;pressure_sealevel;temperature;humidity
59825;BME280;45703;50.898;6.054;2024-03-29T00:00:24;97782.25;;;8.06;100.00
59825;BME280;45703;50.898;6.054;2024-03-29T00:02:50;97782.78;;;8.03;100.00
59825;BME280;45703;50.898;6.054;2024-03-29T00:05:15;97772.41;;;7.97;100.00
59825;BME280;45703;50.898;6.054;2024-03-29T00:07:40;97773.19;;;7.87;100.00
59825;BME280;45703;50.898;6.054;2024-03-29T00:10:06;97768.66;;;7.83;100.00
59825;BME280;45703;50.898;6.054;2024-03-29T00:12:31;97777.16;;;7.80;100.00
59825;BME280;45703;50.898;6.054;2024-03-29T00:14:57;97761.72;;;7.67;100.00
59825;BME280;45703;50.898;6.054;2024-03-29T00:17:22;97771.81;;;7.70;100.00
59825;BME280;45703;50.898;6.054;2024-03-29T00:19:48;97771.28;;;7.63;100.00
59825;BME280;45703;50.898;6.054;2024-03-29T00:22:13;97771.00;;;7.59;100.00
59825;BME280;45703;50.898;6.054;2024-03-29T00:24:38;97784.53;;;7.58;100.00
59825;BME280;45703;50.898;6.054;2024-03-29T00:27:04;97780.53;;;7.55;100.00
59825;BME280;45703;50.898;6.054;2024-03-29T00:29:29;97773.09;;;7.47;100.00
59825;BME280;45703;50.898;6.054;2024-03-29T00:31:55;97776.81;;;7.46;100.00
59825;BME280;45703;50.898;6.054;2024-03-29T00:34:20;97785.56;;;7.42;100.00
59825;BME280;45703;50.898;6.054;2024-03-29T00:36:46;97774.94;;;7.42;100.00
59825;BME280;45703;50.898;6.054;2024-03-29T00:39:11;97804.41;;;7.45;100.00
59825;BME280;45703;50.898;6.054;2024-03-29T00:41:37;97799.91;;;7.46;100.00
59825;BME280;45703;50.898;6.054;2024-03-29T00:44:02;97786.88;;;7.44;100.00
59825;BME280;45703;50.898;6.054;2024-03-29T00:46:28;97781.31;;;7.46;100.00
59825;BME280;45703;50.898;6.054;2024-03-29T00:48:53;97773.38;;;7.51;100.00
59825;BME280;45703;50.898;6.054;2024-03-29T00:51:19;97755.34;;;7.53;100.00
59825;BME280;45703;50.898;6.054;2024-03-29T00:53:44;97754.28;;;7.59;100.00
59825;BME280;45703;50.898;6.054;2024-03-29T00:56:10;97755.38;;;7.68;100.00
59825;BME280;45703;50.898;6.054;2024-03-29T00:58:35;97757.25;;;7.67;100.00
59825;BME280;45703;50.898;6.054;2024-03-29T01:01:00;97766.81;;;7.73;100.00
59825;BME280;45703;50.898;6.054;2024-03-29T01:03:26;97787.00;;;7.79;100.00
59825;BME280;45703;50.898;6.054;2024-03-29T01:05:54;97780.88;;;7.79;100.00
59825;BME280;45703;50.898;6.054;2024-03-29T01:08:19;97796.03;;;7.88;100.00
59825;BME280;45703;50.898;6.054;2024-03-29T01:10:46;97805.34;;;7.96;100.00
59825;BME280;45703;50.898;6.054;2024-03-29T01:13:11;97803.78;;;8.00;100.00
59825;BME280;45703;50.898;6.054;2024-03-29T01:15:36;97824.50;;;8.13;100.00
59825;BME280;45703;50.898;6.054;2024-03-29T01:18:02;97813.34;;;8.16;100.00
59825;BME280;45703;50.898;6.054;2024-03-29T01:20:27;97809.66;;;8.27;100.00
59825;BME280;45703;50.898;6.054;2024-03-29T01:22:52;97796.91;;;8.29;100.00
59825;BME280;45703;50.898;6.054;2024-03-29T01:25:18;97794.78;;;8.31;100.00
59825;BME280;45703;50.898;6.054;2024-03-29T01:27:43;97788.69;;;8.40;100.00
59825;BME280;45703;50.898;6.054;2024-03-29T01:30:09;97776.19;;;8.46;100.00
59825;BME280;45703;50.898;6.054;2024-03-29T01:32:34;97776.44;;;8.49;100.00
59825;BME280;45703;50.898;6.054;2024-03-29T01:35:00;97788.41;;;8.57;100.00
59825;BME280;45703;50.898;6.054;2024-03-29T01:37:25;97783.31;;;8.65;100.00
59825;BME280;45703;50.898;6.054;2024-03-29T01:39:51;97771.63;;;8.66;100.00
59825;BME280;45703;50.898;6.054;2024-03-29T01:42:16;97758.34;;;8.71;100.00
59825;BME280;45703;50.898;6.054;2024-03-29T01:44:42;97764.97;;;8.78;100.00
59825;BME280;45703;50.898;6.054;2024-03-29T01:47:08;97759.63;;;8.83;100.00
59825;BME280;45703;50.898;6.054;2024-03-29T01:49:33;97773.19;;;8.92;100.00
59825;BME280;45703;50.898;6.054;2024-03-29T01:51:59;97759.34;;;8.95;100.00
59825;BME280;45703;50.898;6.054;2024-03-29T01:54:25;97760.69;;;8.97;100.00
59825;BME280;45703;50.898;6.054;2024-03-29T01:56:50;97757.72;;;9.04;100.00
59825;BME280;45703;50.898;6.054;2024-03-29T01:59:17;97760.13;;;9.05;100.00
59825;BME280;45703;50.898;6.054;2024-03-29T02:01:45;97753.44;;;9.08;100.00
59825;BME280;45703;50.898;6.054;2024-03-29T02:04:11;97751.03;;;9.11;100.00
59825;BME280;45703;50.898;6.054;2024-03-29T02:06:39;97752.63;;;9.12;100.00
59825;BME280;45703;50.898;6.054;2024-03-29T02:09:05;97765.91;;;9.17;100.00
59825;BME280;45703;50.898;6.054;2024-03-29T02:11:30;97761.66;;;9.21;100.00
59825;BME280;45703;50.898;6.054;2024-03-29T02:13:56;97753.13;;;9.24;100.00
59825;BME280;45703;50.898;6.054;2024-03-29T02:16:22;97757.88;;;9.27;100.00
59825;BME280;45703;50.898;6.054;2024-03-29T02:18:47;97758.94;;;9.31;100.00
59825;BME280;45703;50.898;6.054;2024-03-29T02:21:13;97762.94;;;9.34;100.00
59825;BME280;45703;50.898;6.054;2024-03-29T02:23:43;97771.97;;;9.38;100.00
59825;BME280;45703;50.898;6.054;2024-03-29T02:26:10;97775.66;;;9.42;100.00
59825;BME280;45703;50.898;6.054;2024-03-29T02:28:35;97788.69;;;9.43;100.00
59825;BME280;45703;50.898;6.054;2024-03-29T02:31:01;97785.50;;;9.41;100.00
59825;BME280;45703;50.898;6.054;2024-03-29T02:33:26;97800.44;;;9.37;100.00
59825;BME280;45703;50.898;6.054;2024-03-29T02:35:51;97793.53;;;9.31;100.00
59825;BME280;45703;50.898;6.054;2024-03-29T02:38:17;97793.84;;;9.30;100.00
59825;BME280;45703;50.898;6.054;2024-03-29T02:40:42;97794.09;;;9.23;100.00
59825;BME280;45703;50.898;6.054;2024-03-29T02:43:07;97796.00;;;9.13;100.00
59825;BME280;45703;50.898;6.054;2024-03-29T02:45:33;97798.41;;;9.09;100.00
59825;BME280;45703;50.898;6.054;2024-03-29T02:47:58;97784.06;;;9.00;100.00
59825;BME280;45703;50.898;6.054;2024-03-29T02:50:24;97796.84;;;8.98;100.00
59825;BME280;45703;50.898;6.054;2024-03-29T02:52:49;97799.78;;;8.92;100.00
59825;BME280;45703;50.898;6.054;2024-03-29T02:55:14;97783.03;;;8.86;100.00
59825;BME280;45703;50.898;6.054;2024-03-29T02:57:40;97793.16;;;8.79;100.00
59825;BME280;45703;50.898;6.054;2024-03-29T03:00:06;97780.69;;;8.75;100.00
59825;BME280;45703;50.898;6.054;2024-03-29T03:02:32;97774.84;;;8.68;100.00
59825;BME280;45703;50.898;6.054;2024-03-29T03:04:57;97772.69;;;8.60;100.00
59825;BME280;45703;50.898;6.054;2024-03-29T03:07:24;97786.28;;;8.58;100.00
59825;BME280;45703;50.898;6.054;2024-03-29T03:10:08;97775.38;;;8.55;100.00
59825;BME280;45703;50.898;6.054;2024-03-29T03:12:52;97755.44;;;8.48;100.00
59825;BME280;45703;50.898;6.054;2024-03-29T03:15:17;97757.56;;;8.51;100.00
59825;BME280;45703;50.898;6.054;2024-03-29T03:17:43;97745.34;;;8.50;100.00
59825;BME280;45703;50.898;6.054;2024-03-29T03:20:08;97752.25;;;8.46;100.00
59825;BME280;45703;50.898;6.054;2024-03-29T03:22:34;97753.06;;;8.41;100.00
59825;BME280;45703;50.898;6.054;2024-03-29T03:25:00;97742.16;;;8.38;100.00
59825;BME280;45703;50.898;6.054;2024-03-29T03:27:25;97740.56;;;8.37;100.00
59825;BME280;45703;50.898;6.054;2024-03-29T03:29:50;97735.53;;;8.35;100.00
59825;BME280;45703;50.898;6.054;2024-03-29T03:32:16;97743.22;;;8.32;100.00
59825;BME280;45703;50.898;6.054;2024-03-29T03:34:41;97753.84;;;8.32;100.00
59825;BME280;45703;50.898;6.054;2024-03-29T03:37:07;97745.88;;;8.32;100.00
59825;BME280;45703;50.898;6.054;2024-03-29T03:39:32;97728.88;;;8.23;100.00
59825;BME280;45703;50.898;6.054;2024-03-29T03:41:57;97736.59;;;8.24;100.00
59825;BME280;45703;50.898;6.054;2024-03-29T03:44:23;97723.56;;;8.18;100.00
59825;BME280;45703;50.898;6.054;2024-03-29T03:46:50;97735.75;;;8.14;100.00
59825;BME280;45703;50.898;6.054;2024-03-29T03:49:16;97733.88;;;8.09;100.00
59825;BME280;45703;50.898;6.054;2024-03-29T03:51:41;97746.38;;;8.09;100.00
59825;BME280;45703;50.898;6.054;2024-03-29T03:54:06;97731.50;;;8.03;100.00
59825;BME280;45703;50.898;6.054;2024-03-29T03:56:32;97729.38;;;8.00;100.00
59825;BME280;45703;50.898;6.054;2024-03-29T03:58:57;97733.63;;;8.01;100.00
59825;BME280;45703;50.898;6.054;2024-03-29T04:01:23;97735.75;;;7.99;100.00
59825;BME280;45703;50.898;6.054;2024-03-29T04:03:48;97738.41;;;7.94;100.00
59825;BME280;45703;50.898;6.054;2024-03-29T04:06:14;97739.47;;;7.93;100.00
59825;BME280;45703;50.898;6.054;2024-03-29T04:08:39;97731.47;;;7.88;100.00
59825;BME280;45703;50.898;6.054;2024-03-29T04:11:04;97732.81;;;7.85;100.00
59825;BME280;45703;50.898;6.054;2024-03-29T04:13:30;97735.72;;;7.84;100.00
59825;BME280;45703;50.898;6.054;2024-03-29T04:16:07;97727.75;;;7.79;100.00
59825;BME280;45703;50.898;6.054;2024-03-29T04:18:33;97716.88;;;7.75;100.00
59825;BME280;45703;50.898;6.054;2024-03-29T04:21:00;97733.34;;;7.77;100.00
59825;BME280;45703;50.898;6.054;2024-03-29T04:23:26;97741.03;;;7.74;100.00
59825;BME280;45703;50.898;6.054;2024-03-29T04:25:55;97734.66;;;7.70;100.00
59825;BME280;45703;50.898;6.054;2024-03-29T04:28:21;97745.81;;;7.72;100.00
59825;BME280;45703;50.898;6.054;2024-03-29T04:30:57;97741.03;;;7.69;100.00
59825;BME280;45703;50.898;6.054;2024-03-29T04:33:23;97724.03;;;7.70;100.00
59825;BME280;45703;50.898;6.054;2024-03-29T04:35:56;97718.47;;;7.66;100.00
59825;BME280;45703;50.898;6.054;2024-03-29T04:38:22;97727.22;;;7.67;100.00
59825;BME280;45703;50.898;6.054;2024-03-29T04:40:48;97718.19;;;7.63;100.00
59825;BME280;45703;50.898;6.054;2024-03-29T04:43:14;97714.47;;;7.64;100.00
59825;BME280;45703;50.898;6.054;2024-03-29T04:45:40;97718.47;;;7.66;100.00
59825;BME280;45703;50.898;6.054;2024-03-29T04:48:05;97724.56;;;7.62;100.00
59825;BME280;45703;50.898;6.054;2024-03-29T04:50:31;97727.22;;;7.62;100.00
59825;BME280;45703;50.898;6.054;2024-03-29T04:52:56;97739.72;;;7.66;100.00
59825;BME280;45703;50.898;6.054;2024-03-29T04:55:21;97738.91;;;7.66;100.00
59825;BME280;45703;50.898;6.054;2024-03-29T04:57:47;97724.03;;;7.65;100.00
59825;BME280;45703;50.898;6.054;2024-03-29T05:00:12;97725.88;;;7.64;100.00
59825;BME280;45703;50.898;6.054;2024-03-29T05:02:38;97730.41;;;7.64;100.00
59825;BME280;45703;50.898;6.054;2024-03-29T05:05:03;97708.09;;;7.60;100.00
59825;BME280;45703;50.898;6.054;2024-03-29T05:07:28;97708.63;;;7.62;100.00
59825;BME280;45703;50.898;6.054;2024-03-29T05:09:54;97704.91;;;7.58;100.00
59825;BME280;45703;50.898;6.054;2024-03-29T05:12:21;97704.91;;;7.58;100.00
59825;BME280;45703;50.898;6.054;2024-03-29T05:14:46;97728.53;;;7.59;100.00
59825;BME280;45703;50.898;6.054;2024-03-29T05:17:14;97721.38;;;7.55;100.00
59825;BME280;45703;50.898;6.054;2024-03-29T05:19:40;97709.16;;;7.54;100.00
59825;BME280;45703;50.898;6.054;2024-03-29T05:22:05;97708.63;;;7.57;100.00
59825;BME280;45703;50.898;6.054;2024-03-29T05:24:31;97702.78;;;7.60;100.00
59825;BME280;45703;50.898;6.054;2024-03-29T05:26:56;97700.13;;;7.55;100.00
59825;BME280;45703;50.898;6.054;2024-03-29T05:29:22;97696.41;;;7.56;100.00
59825;BME280;45703;50.898;6.054;2024-03-29T05:31:47;97695.88;;;7.59;100.00
59825;BME280;45703;50.898;6.054;2024-03-29T05:34:12;97697.47;;;7.60;100.00
59825;BME280;45703;50.898;6.054;2024-03-29T05:36:39;97681.81;;;7.63;100.00
59825;BME280;45703;50.898;6.054;2024-03-29T05:39:05;97688.16;;;7.57;100.00
59825;BME280;45703;50.898;6.054;2024-03-29T05:41:30;97682.06;;;7.57;100.00
59825;BME280;45703;50.898;6.054;2024-03-29T05:43:57;97684.75;;;7.62;100.00
59825;BME280;45703;50.898;6.054;2024-03-29T05:46:22;97688.44;;;7.61;100.00
59825;BME280;45703;50.898;6.054;2024-03-29T05:48:48;97693.22;;;7.59;100.00
59825;BME280;45703;50.898;6.054;2024-03-29T05:51:13;97716.06;;;7.65;100.00
59825;BME280;45703;50.898;6.054;2024-03-29T05:53:38;97691.63;;;7.63;100.00
59825;BME280;45703;50.898;6.054;2024-03-29T05:56:05;97690.03;;;7.67;100.00
59825;BME280;45703;50.898;6.054;2024-03-29T05:58:30;97691.13;;;7.66;100.00
59825;BME280;45703;50.898;6.054;2024-03-29T06:00:56;97697.47;;;7.70;100.00
59825;BME280;45703;50.898;6.054;2024-03-29T06:03:21;97712.88;;;7.73;100.00
59825;BME280;45703;50.898;6.054;2024-03-29T06:05:47;97714.22;;;7.75;100.00
59825;BME280;45703;50.898;6.054;2024-03-29T06:08:13;97702.78;;;7.75;100.00
59825;BME280;45703;50.898;6.054;2024-03-29T06:10:38;97713.16;;;7.76;100.00
59825;BME280;45703;50.898;6.054;2024-03-29T06:13:03;97718.19;;;7.78;100.00
59825;BME280;45703;50.898;6.054;2024-03-29T06:15:33;97719.53;;;7.85;100.00
59825;BME280;45703;50.898;6.054;2024-03-29T06:18:17;97714.75;;;7.87;100.00
59825;BME280;45703;50.898;6.054;2024-03-29T06:20:44;97716.63;;;7.97;100.00
59825;BME280;45703;50.898;6.054;2024-03-29T06:23:10;97725.91;;;8.04;100.00
59825;BME280;45703;50.898;6.054;2024-03-29T06:25:35;97721.41;;;8.05;100.00
59825;BME280;45703;50.898;6.054;2024-03-29T06:28:00;97730.22;;;8.20;100.00
59825;BME280;45703;50.898;6.054;2024-03-29T06:30:26;97721.94;;;8.32;100.00
59825;BME280;45703;50.898;6.054;2024-03-29T06:32:51;97725.94;;;8.39;100.00
59825;BME280;45703;50.898;6.054;2024-03-29T06:35:16;97713.97;;;8.47;100.00
59825;BME280;45703;50.898;6.054;2024-03-29T06:37:44;97729.38;;;8.59;100.00
59825;BME280;45703;50.898;6.054;2024-03-29T06:40:10;97728.56;;;8.69;100.00
59825;BME280;45703;50.898;6.054;2024-03-29T06:42:35;97739.16;;;8.79;100.00
59825;BME280;45703;50.898;6.054;2024-03-29T06:45:01;97746.84;;;8.85;100.00
59825;BME280;45703;50.898;6.054;2024-03-29T06:47:27;97736.19;;;8.90;100.00
59825;BME280;45703;50.898;6.054;2024-03-29T06:49:53;97739.38;;;8.97;100.00
59825;BME280;45703;50.898;6.054;2024-03-29T06:52:18;97732.97;;;9.03;100.00
59825;BME280;45703;50.898;6.054;2024-03-29T06:54:44;97733.19;;;9.12;100.00
59825;BME280;45703;50.898;6.054;2024-03-29T06:57:09;97737.16;;;9.19;100.00
59825;BME280;45703;50.898;6.054;2024-03-29T06:59:37;97726.50;;;9.24;100.00
59825;BME280;45703;50.898;6.054;2024-03-29T07:02:02;97725.16;;;9.27;100.00
59825;BME280;45703;50.898;6.054;2024-03-29T07:04:28;97731.78;;;9.34;100.00
59825;BME280;45703;50.898;6.054;2024-03-29T07:06:54;97726.94;;;9.41;100.00
59825;BME280;45703;50.898;6.054;2024-03-29T07:09:20;97740.47;;;9.50;100.00
59825;BME280;45703;50.898;6.054;2024-03-29T07:11:47;97746.06;;;9.53;100.00
59825;BME280;45703;50.898;6.054;2024-03-29T07:14:16;97749.47;;;9.59;100.00
59825;BME280;45703;50.898;6.054;2024-03-29T07:16:43;97756.13;;;9.66;100.00
59825;BME280;45703;50.898;6.054;2024-03-29T07:19:08;97752.38;;;9.67;100.00
59825;BME280;45703;50.898;6.054;2024-03-29T07:21:34;97762.75;;;9.69;100.00
59825;BME280;45703;50.898;6.054;2024-03-29T07:23:59;97755.56;;;9.69;100.00
59825;BME280;45703;50.898;6.054;2024-03-29T07:26:25;97770.97;;;9.77;100.00
59825;BME280;45703;50.898;6.054;2024-03-29T07:28:50;97776.53;;;9.81;100.00
59825;BME280;45703;50.898;6.054;2024-03-29T07:31:15;97788.50;;;9.83;100.00
59825;BME280;45703;50.898;6.054;2024-03-29T07:33:41;97780.28;;;9.80;100.00
59825;BME280;45703;50.898;6.054;2024-03-29T07:36:06;97803.66;;;9.93;100.00
59825;BME280;45703;50.898;6.054;2024-03-29T07:38:33;97786.63;;;9.89;100.00
59825;BME280;45703;50.898;6.054;2024-03-29T07:40:58;97793.75;;;10.03;100.00
59825;BME280;45703;50.898;6.054;2024-03-29T07:43:23;97785.69;;;10.13;100.00
59825;BME280;45703;50.898;6.054;2024-03-29T07:45:49;97786.69;;;10.22;100.00
59825;BME280;45703;50.898;6.054;2024-03-29T07:48:16;97788.75;;;10.30;100.00
59825;BME280;45703;50.898;6.054;2024-03-29T07:50:43;97773.31;;;10.27;100.00
59825;BME280;45703;50.898;6.054;2024-03-29T07:53:08;97777.53;;;10.33;100.00
59825;BME280;45703;50.898;6.054;2024-03-29T07:55:35;97778.03;;;10.35;100.00
59825;BME280;45703;50.898;6.054;2024-03-29T07:58:01;97786.78;;;10.45;100.00
59825;BME280;45703;50.898;6.054;2024-03-29T08:00:26;97794.69;;;10.55;100.00
59825;BME280;45703;50.898;6.054;2024-03-29T08:02:52;97805.00;;;10.67;100.00
59825;BME280;45703;50.898;6.054;2024-03-29T08:05:21;97793.44;;;10.76;100.00
59825;BME280;45703;50.898;6.054;2024-03-29T08:07:47;97794.13;;;10.87;100.00
59825;BME280;45703;50.898;6.054;2024-03-29T08:10:12;97791.34;;;10.97;100.00
59825;BME280;45703;50.898;6.054;2024-03-29T08:12:38;97788.03;;;11.10;100.00
59825;BME280;45703;50.898;6.054;2024-03-29T08:15:04;97772.69;;;11.20;100.00
59825;BME280;45703;50.898;6.054;2024-03-29T08:17:29;97785.44;;;11.28;100.00
59825;BME280;45703;50.898;6.054;2024-03-29T08:19:55;97783.72;;;11.37;100.00
59825;BME280;45703;50.898;6.054;2024-03-29T08:22:20;97787.84;;;11.48;100.00
59825;BME280;45703;50.898;6.054;2024-03-29T08:24:46;97776.22;;;11.62;100.00
59825;BME280;45703;50.898;6.054;2024-03-29T08:27:11;97786.84;;;11.86;100.00
59825;BME280;45703;50.898;6.054;2024-03-29T08:29:36;97805.78;;;12.08;100.00
59825;BME280;45703;50.898;6.054;2024-03-29T08:32:02;97798.34;;;12.23;100.00
59825;BME280;45703;50.898;6.054;2024-03-29T08:34:28;97804.53;;;12.37;100.00
59825;BME280;45703;50.898;6.054;2024-03-29T08:37:00;97811.19;;;12.58;100.00
59825;BME280;45703;50.898;6.054;2024-03-29T08:39:25;97816.19;;;12.78;100.00
59825;BME280;45703;50.898;6.054;2024-03-29T08:41:51;97800.19;;;12.92;100.00
59825;BME280;45703;50.898;6.054;2024-03-29T08:44:16;97810.03;;;13.09;100.00
59825;BME280;45703;50.898;6.054;2024-03-29T08:46:41;97800.81;;;13.29;100.00
59825;BME280;45703;50.898;6.054;2024-03-29T08:49:07;97799.44;;;13.45;100.00
59825;BME280;45703;50.898;6.054;2024-03-29T08:51:32;97806.38;;;13.59;100.00
59825;BME280;45703;50.898;6.054;2024-03-29T08:53:57;97801.31;;;13.71;100.00
59825;BME280;45703;50.898;6.054;2024-03-29T08:56:23;97798.59;;;13.85;100.00
59825;BME280;45703;50.898;6.054;2024-03-29T08:58:48;97803.94;;;13.98;100.00
59825;BME280;45703;50.898;6.054;2024-03-29T09:01:15;97806.63;;;14.12;100.00
59825;BME280;45703;50.898;6.054;2024-03-29T09:03:40;97805.81;;;14.25;100.00
59825;BME280;45703;50.898;6.054;2024-03-29T09:06:06;97804.59;;;14.31;100.00
59825;BME280;45703;50.898;6.054;2024-03-29T09:08:31;97818.75;;;14.44;100.00
59825;BME280;45703;50.898;6.054;2024-03-29T09:10:57;97807.78;;;14.54;100.00
59825;BME280;45703;50.898;6.054;2024-03-29T09:13:23;97833.03;;;14.75;100.00
59825;BME280;45703;50.898;6.054;2024-03-29T09:15:49;97823.75;;;14.81;100.00
59825;BME280;45703;50.898;6.054;2024-03-29T09:18:14;97828.28;;;14.72;100.00
59825;BME280;45703;50.898;6.054;2024-03-29T09:20:59;97821.97;;;14.77;100.00
59825;BME280;45703;50.898;6.054;2024-03-29T09:23:28;97827.06;;;14.78;100.00
59825;BME280;45703;50.898;6.054;2024-03-29T09:25:55;97822.66;;;14.82;100.00
59825;BME280;45703;50.898;6.054;2024-03-29T09:28:22;97820.47;;;14.84;100.00
59825;BME280;45703;50.898;6.054;2024-03-29T09:30:47;97812.88;;;14.86;100.00
59825;BME280;45703;50.898;6.054;2024-03-29T09:33:13;97824.47;;;14.95;100.00
59825;BME280;45703;50.898;6.054;2024-03-29T09:35:38;97821.66;;;15.00;100.00
59825;BME280;45703;50.898;6.054;2024-03-29T09:38:04;97831.34;;;15.10;100.00
59825;BME280;45703;50.898;6.054;2024-03-29T09:40:29;97841.84;;;15.20;100.00
59825;BME280;45703;50.898;6.054;2024-03-29T09:42:56;97844.19;;;15.35;100.00
59825;BME280;45703;50.898;6.054;2024-03-29T09:45:33;97864.59;;;15.36;100.00
59825;BME280;45703;50.898;6.054;2024-03-29T09:48:07;97864.13;;;15.42;100.00
59825;BME280;45703;50.898;6.054;2024-03-29T09:50:34;97872.47;;;15.32;100.00
59825;BME280;45703;50.898;6.054;2024-03-29T09:53:01;97882.84;;;15.25;100.00
59825;BME280;45703;50.898;6.054;2024-03-29T09:55:28;97883.72;;;15.12;100.00
59825;BME280;45703;50.898;6.054;2024-03-29T09:57:53;97893.97;;;15.10;100.00
59825;BME280;45703;50.898;6.054;2024-03-29T10:00:19;97884.19;;;14.92;100.00
59825;BME280;45703;50.898;6.054;2024-03-29T10:02:45;97876.31;;;14.96;100.00
59825;BME280;45703;50.898;6.054;2024-03-29T10:05:12;97888.72;;;15.05;100.00
59825;BME280;45703;50.898;6.054;2024-03-29T10:07:39;97877.72;;;15.15;100.00
59825;BME280;45703;50.898;6.054;2024-03-29T10:10:14;97877.59;;;15.20;100.00
59825;BME280;45703;50.898;6.054;2024-03-29T10:12:40;97875.38;;;15.22;100.00
59825;BME280;45703;50.898;6.054;2024-03-29T10:15:06;97876.97;;;15.23;100.00
59825;BME280;45703;50.898;6.054;2024-03-29T10:17:34;97876.72;;;15.33;100.00
59825;BME280;45703;50.898;6.054;2024-03-29T10:20:02;97868.41;;;15.43;100.00
59825;BME280;45703;50.898;6.054;2024-03-29T10:22:29;97869.38;;;15.47;100.00
59825;BME280;45703;50.898;6.054;2024-03-29T10:24:57;97877.38;;;15.69;100.00
59825;BME280;45703;50.898;6.054;2024-03-29T10:27:26;97875.84;;;15.85;100.00
59825;BME280;45703;50.898;6.054;2024-03-29T10:29:53;97856.56;;;16.00;100.00
59825;BME280;45703;50.898;6.054;2024-03-29T10:32:18;97875.94;;;16.19;100.00
59825;BME280;45703;50.898;6.054;2024-03-29T10:34:43;97875.63;;;16.20;100.00
59825;BME280;45703;50.898;6.054;2024-03-29T10:37:09;97880.47;;;16.40;100.00
59825;BME280;45703;50.898;6.054;2024-03-29T10:39:35;97887.66;;;16.31;100.00
59825;BME280;45703;50.898;6.054;2024-03-29T10:42:01;97892.16;;;16.36;100.00
59825;BME280;45703;50.898;6.054;2024-03-29T10:44:28;97884.69;;;16.33;100.00
59825;BME280;45703;50.898;6.054;2024-03-29T10:46:56;97873.72;;;16.29;100.00
59825;BME280;45703;50.898;6.054;2024-03-29T10:49:23;97877.88;;;16.27;100.00
59825;BME280;45703;50.898;6.054;2024-03-29T10:51:49;97890.19;;;16.11;100.00
59825;BME280;45703;50.898;6.054;2024-03-29T10:54:16;97882.69;;;15.91;100.00
59825;BME280;45703;50.898;6.054;2024-03-29T10:56:43;97889.16;;;15.90;100.00
59825;BME280;45703;50.898;6.054;2024-03-29T11:01:44;97890.69;;;15.74;100.00
59825;BME280;45703;50.898;6.054;2024-03-29T11:04:22;97898.63;;;15.79;100.00
59825;BME280;45703;50.898;6.054;2024-03-29T11:06:50;97903.09;;;15.92;100.00
59825;BME280;45703;50.898;6.054;2024-03-29T11:09:20;97921.44;;;15.90;100.00
59825;BME280;45703;50.898;6.054;2024-03-29T11:11:50;97914.31;;;15.86;100.00
59825;BME280;45703;50.898;6.054;2024-03-29T11:14:20;97910.53;;;15.87;100.00
59825;BME280;45703;50.898;6.054;2024-03-29T11:16:49;97909.09;;;15.89;100.00
59825;BME280;45703;50.898;6.054;2024-03-29T11:19:17;97912.47;;;16.03;100.00
59825;BME280;45703;50.898;6.054;2024-03-29T11:21:43;97909.22;;;16.23;100.00
59825;BME280;45703;50.898;6.054;2024-03-29T11:24:13;97898.28;;;16.28;100.00
59825;BME280;45703;50.898;6.054;2024-03-29T11:26:41;97883.59;;;16.34;100.00
59825;BME280;45703;50.898;6.054;2024-03-29T11:29:18;97898.38;;;16.53;100.00
59825;BME280;45703;50.898;6.054;2024-03-29T11:31:44;97922.13;;;16.51;100.00
59825;BME280;45703;50.898;6.054;2024-03-29T11:34:10;97926.06;;;16.37;100.00
59825;BME280;45703;50.898;6.054;2024-03-29T11:36:39;97931.91;;;16.39;100.00
59825;BME280;45703;50.898;6.054;2024-03-29T11:39:05;97947.16;;;16.52;100.00
59825;BME280;45703;50.898;6.054;2024-03-29T11:41:30;97967.59;;;16.44;100.00
59825;BME280;45703;50.898;6.054;2024-03-29T11:43:57;97975.84;;;16.17;100.00
59825;BME280;45703;50.898;6.054;2024-03-29T11:46:24;97979.69;;;16.25;100.00
59825;BME280;45703;50.898;6.054;2024-03-29T11:48:49;97964.31;;;16.17;100.00
59825;BME280;45703;50.898;6.054;2024-03-29T11:51:18;97965.94;;;15.96;100.00
59825;BME280;45703;50.898;6.054;2024-03-29T11:53:46;97968.47;;;15.93;100.00
59825;BME280;45703;50.898;6.054;2024-03-29T11:56:11;97961.75;;;15.82;100.00
59825;BME280;45703;50.898;6.054;2024-03-29T11:58:37;97971.78;;;15.90;100.00
59825;BME280;45703;50.898;6.054;2024-03-29T12:01:04;97964.56;;;16.07;100.00
59825;BME280;45703;50.898;6.054;2024-03-29T12:03:30;97973.50;;;16.16;100.00
59825;BME280;45703;50.898;6.054;2024-03-29T12:05:57;97957.00;;;16.17;100.00
59825;BME280;45703;50.898;6.054;2024-03-29T12:08:30;97966.84;;;16.30;100.00
59825;BME280;45703;50.898;6.054;2024-03-29T12:10:57;97984.69;;;16.48;100.00
59825;BME280;45703;50.898;6.054;2024-03-29T12:13:23;97976.13;;;16.55;100.00
59825;BME280;45703;50.898;6.054;2024-03-29T12:15:48;97976.00;;;16.51;100.00
59825;BME280;45703;50.898;6.054;2024-03-29T12:18:14;97973.47;;;16.63;100.00
59825;BME280;45703;50.898;6.054;2024-03-29T12:20:42;97974.44;;;16.67;100.00
59825;BME280;45703;50.898;6.054;2024-03-29T12:23:08;97982.69;;;16.71;100.00
59825;BME280;45703;50.898;6.054;2024-03-29T12:25:36;97973.34;;;16.77;100.00
59825;BME280;45703;50.898;6.054;2024-03-29T12:28:02;97973.66;;;16.84;100.00
59825;BME280;45703;50.898;6.054;2024-03-29T12:30:28;97962.44;;;16.90;100.00
59825;BME280;45703;50.898;6.054;2024-03-29T12:33:22;97975.56;;;16.92;100.00
59825;BME280;45703;50.898;6.054;2024-03-29T12:35:50;97977.94;;;16.85;100.00
59825;BME280;45703;50.898;6.054;2024-03-29T12:38:17;97975.88;;;16.82;100.00
59825;BME280;45703;50.898;6.054;2024-03-29T12:40:45;97978.88;;;16.80;100.00
59825;BME280;45703;50.898;6.054;2024-03-29T12:43:13;97974.63;;;16.88;100.00
59825;BME280;45703;50.898;6.054;2024-03-29T12:45:40;97971.59;;;16.98;100.00
59825;BME280;45703;50.898;6.054;2024-03-29T12:48:13;97955.63;;;17.10;100.00
59825;BME280;45703;50.898;6.054;2024-03-29T12:50:43;97967.63;;;17.04;100.00
59825;BME280;45703;50.898;6.054;2024-03-29T12:53:11;97963.19;;;17.08;100.00